createdAt,value
2018-08-31T00:01:52.608Z,13.39
2018-08-31T00:08:40.838Z,13.46
2018-08-31T00:14:45.459Z,13.21
2018-08-31T00:20:50.099Z,13.12
2018-08-31T00:27:11.705Z,13.04
2018-08-31T00:33:35.026Z,12.89
2018-08-31T00:42:04.347Z,12.65
2018-08-31T00:48:10.702Z,12.68
2018-08-31T00:54:15.350Z,12.75
2018-08-31T01:00:20.369Z,12.62
2018-08-31T01:06:24.963Z,12.53
2018-08-31T01:12:29.649Z,12.39
2018-08-31T01:21:06.317Z,12.27
2018-08-31T01:27:11.701Z,12.23
2018-08-31T01:33:16.616Z,12.22
2018-08-31T01:39:21.433Z,12.11
2018-08-31T01:45:26.299Z,12.39
2018-08-31T01:51:31.141Z,12.39
2018-08-31T01:57:35.823Z,12.10
2018-08-31T02:03:41.340Z,12.13
2018-08-31T02:09:46.638Z,12.05
2018-08-31T02:15:51.453Z,11.87
2018-08-31T02:21:56.472Z,11.76
2018-08-31T02:28:01.151Z,11.68
2018-08-31T02:34:06.132Z,11.73
2018-08-31T02:40:11.380Z,11.75
2018-08-31T02:46:16.825Z,11.80
2018-08-31T02:52:21.505Z,12.08
2018-08-31T02:58:26.270Z,12.18
2018-08-31T03:04:31.057Z,12.51
2018-08-31T03:10:35.826Z,12.49
2018-08-31T03:19:14.205Z,12.31
2018-08-31T03:25:19.113Z,12.30
2018-08-31T03:31:23.957Z,12.32
2018-08-31T03:37:28.783Z,12.40
2018-08-31T03:43:33.570Z,12.34
2018-08-31T03:49:38.336Z,12.38
2018-08-31T03:55:43.682Z,12.58
2018-08-31T04:01:48.669Z,12.46
2018-08-31T04:07:53.741Z,12.52
2018-08-31T04:13:58.697Z,12.67
2018-08-31T04:20:03.420Z,12.46
2018-08-31T04:26:08.172Z,12.35
2018-08-31T04:32:14.240Z,12.30
2018-08-31T04:38:19.001Z,12.14
2018-08-31T04:44:23.861Z,11.84
2018-08-31T04:50:28.812Z,11.97
2018-08-31T04:56:33.540Z,12.21
2018-08-31T05:02:38.300Z,12.39
2018-08-31T05:08:43.387Z,12.33
2018-08-31T05:14:48.330Z,12.22
2018-08-31T05:20:53.077Z,12.33
2018-08-31T05:26:57.938Z,12.46
2018-08-31T05:33:02.700Z,12.49
2018-08-31T05:39:11.447Z,12.63
2018-08-31T05:45:16.766Z,12.53
2018-08-31T05:51:21.456Z,12.63
2018-08-31T05:57:26.340Z,12.65
2018-08-31T06:03:31.104Z,12.93
2018-08-31T06:09:36.143Z,13.00
2018-08-31T06:15:41.022Z,13.16
2018-08-31T06:21:46.223Z,13.25
2018-08-31T06:27:51.462Z,13.17
2018-08-31T06:33:56.347Z,13.58
2018-08-31T06:40:01.093Z,13.62
2018-08-31T06:46:06.056Z,13.78
2018-08-31T06:52:12.535Z,13.79
2018-08-31T06:58:17.390Z,14.07
2018-08-31T07:04:22.179Z,14.55
2018-08-31T07:10:26.879Z,14.60
2018-08-31T07:16:31.761Z,15.00
2018-08-31T07:22:36.570Z,14.95
2018-08-31T07:28:41.824Z,15.40
2018-08-31T07:34:46.662Z,15.28
2018-08-31T07:40:51.428Z,15.64
2018-08-31T07:46:56.374Z,15.80
2018-08-31T07:53:01.791Z,16.61
2018-08-31T07:59:06.825Z,17.21
2018-08-31T08:05:11.949Z,17.44
2018-08-31T08:11:16.781Z,17.33
2018-08-31T08:17:22.146Z,17.07
2018-08-31T08:23:27.115Z,16.54
2018-08-31T08:29:32.242Z,17.13
2018-08-31T08:35:37.289Z,17.51
2018-08-31T08:41:42.429Z,18.13
2018-08-31T08:47:47.424Z,19.30
2018-08-31T08:53:52.081Z,18.80
2018-08-31T08:59:56.914Z,19.49
2018-08-31T09:06:01.614Z,19.82
2018-08-31T09:12:06.639Z,20.78
2018-08-31T09:18:13.207Z,20.54
2018-08-31T09:24:18.156Z,20.51
2018-08-31T09:30:28.249Z,20.68
2018-08-31T09:36:33.354Z,20.73
2018-08-31T09:42:38.298Z,20.86
2018-08-31T09:48:43.570Z,22.44
2018-08-31T09:54:48.364Z,23.35
2018-08-31T10:00:55.447Z,23.96
2018-08-31T10:07:00.433Z,25.79
2018-08-31T10:13:05.217Z,27.69
2018-08-31T10:19:11.364Z,26.95
2018-08-31T10:25:16.551Z,23.80
2018-08-31T10:31:21.248Z,23.61
2018-08-31T10:37:26.232Z,21.64
2018-08-31T10:43:31.149Z,20.48
2018-08-31T10:49:35.900Z,19.47
2018-08-31T10:55:41.524Z,19.19
2018-08-31T11:01:46.630Z,18.75
2018-08-31T11:07:51.560Z,19.41
2018-08-31T11:13:56.357Z,19.56
2018-08-31T11:20:01.453Z,19.40
2018-08-31T11:26:06.292Z,21.06
2018-08-31T11:32:12.184Z,23.62
2018-08-31T11:38:17.929Z,25.54
2018-08-31T11:44:22.641Z,26.24
2018-08-31T11:50:27.488Z,27.48
2018-08-31T11:56:32.404Z,27.69
2018-08-31T12:02:37.346Z,27.89
2018-08-31T12:08:43.014Z,28.24
2018-08-31T12:14:47.858Z,25.06
2018-08-31T12:20:53.187Z,23.18
2018-08-31T12:26:58.306Z,22.27
2018-08-31T12:33:03.060Z,22.31
2018-08-31T12:39:11.801Z,23.97
2018-08-31T12:45:17.240Z,23.02
2018-08-31T12:51:22.061Z,25.08
2018-08-31T12:57:27.268Z,26.06
2018-08-31T13:03:32.077Z,25.68
2018-08-31T13:09:36.836Z,24.08
2018-08-31T13:15:43.184Z,24.87
2018-08-31T13:21:48.463Z,24.85
2018-08-31T13:27:53.682Z,25.17
2018-08-31T13:33:58.433Z,25.05
2018-08-31T13:40:03.351Z,25.66
2018-08-31T13:46:08.581Z,29.25
2018-08-31T13:52:13.914Z,31.48
2018-08-31T13:58:18.696Z,31.74
2018-08-31T14:04:23.417Z,31.93
2018-08-31T14:10:28.167Z,32.98
2018-08-31T14:16:35.829Z,32.31
2018-08-31T14:22:42.935Z,27.60
2018-08-31T14:28:47.814Z,25.49
2018-08-31T14:34:52.678Z,24.23
2018-08-31T14:40:57.447Z,23.11
2018-08-31T14:47:09.329Z,22.45
2018-08-31T14:53:15.193Z,21.99
2018-08-31T14:59:20.217Z,21.94
2018-08-31T15:05:25.639Z,22.65
2018-08-31T15:11:30.531Z,23.03
2018-08-31T15:17:35.838Z,22.67
2018-08-31T15:23:42.718Z,22.40
2018-08-31T15:29:47.470Z,21.94
2018-08-31T15:35:52.628Z,22.01
2018-08-31T15:41:57.898Z,22.06
2018-08-31T15:48:02.851Z,22.40
2018-08-31T15:54:07.629Z,22.43
2018-08-31T16:00:14.780Z,22.47
2018-08-31T16:06:19.612Z,21.82
2018-08-31T16:12:24.358Z,21.27
2018-08-31T16:18:29.239Z,21.15
2018-08-31T16:24:34.224Z,20.89
2018-08-31T16:30:39.081Z,20.59
2018-08-31T16:36:43.940Z,20.36
2018-08-31T16:42:49.565Z,20.09
2018-08-31T16:48:54.383Z,19.76
2018-08-31T16:54:59.617Z,19.82
2018-08-31T17:01:04.475Z,19.70
2018-08-31T17:07:09.444Z,19.57
2018-08-31T17:13:15.198Z,19.42
2018-08-31T17:19:20.434Z,19.51
2018-08-31T17:25:26.059Z,19.39
2018-08-31T17:31:35.923Z,19.11
2018-08-31T17:37:41.404Z,19.02
2018-08-31T17:43:46.501Z,18.51
2018-08-31T17:49:51.588Z,18.43
2018-08-31T17:55:56.562Z,18.29
2018-08-31T18:02:01.317Z,18.44
2018-08-31T18:08:06.154Z,18.24
2018-08-31T18:14:12.001Z,18.14
2018-08-31T18:20:16.779Z,18.20
2018-08-31T18:26:21.806Z,18.11
2018-08-31T18:32:26.547Z,17.92
2018-08-31T18:38:31.409Z,17.82
2018-08-31T18:44:36.387Z,17.74
2018-08-31T18:50:41.786Z,17.63
2018-08-31T18:56:47.173Z,17.47
2018-08-31T19:02:51.925Z,17.41
2018-08-31T19:08:57.398Z,16.99
2018-08-31T19:15:02.473Z,16.83
2018-08-31T19:21:07.178Z,16.63
2018-08-31T19:27:14.180Z,16.60
2018-08-31T19:33:19.328Z,16.43
2018-08-31T19:39:24.192Z,16.37
2018-08-31T19:45:29.323Z,16.13
2018-08-31T19:51:34.080Z,15.91
2018-08-31T19:57:38.960Z,15.95
2018-08-31T20:03:44.640Z,15.95
2018-08-31T20:09:49.666Z,15.59
2018-08-31T20:15:54.399Z,15.22
2018-08-31T20:21:59.136Z,15.05
2018-08-31T20:28:04.252Z,14.95
2018-08-31T20:34:09.906Z,14.54
2018-08-31T20:40:15.618Z,14.26
2018-08-31T20:46:20.524Z,14.16
2018-08-31T20:52:25.482Z,14.09
2018-08-31T20:58:30.319Z,14.07
2018-08-31T21:04:35.270Z,13.90
2018-08-31T21:10:40.783Z,14.00
2018-08-31T21:16:46.376Z,13.85
2018-08-31T21:22:51.251Z,13.84
2018-08-31T21:28:56.054Z,13.74
2018-08-31T21:35:01.188Z,13.61
2018-08-31T21:41:06.277Z,13.59
2018-08-31T21:47:12.398Z,13.36
2018-08-31T21:53:17.150Z,13.37
2018-08-31T21:59:22.031Z,13.13
2018-08-31T22:05:26.911Z,13.09
2018-08-31T22:11:31.556Z,12.85
2018-08-31T22:17:36.461Z,12.76
2018-08-31T22:23:42.553Z,12.76
2018-08-31T22:29:47.852Z,12.62
2018-08-31T22:35:52.972Z,12.35
2018-08-31T22:41:57.898Z,12.25
2018-08-31T22:48:02.630Z,12.25
2018-08-31T22:54:07.583Z,12.25
2018-08-31T23:00:12.863Z,12.24
2018-08-31T23:06:17.730Z,11.91
2018-08-31T23:12:22.486Z,11.74
2018-08-31T23:18:27.194Z,11.90
2018-08-31T23:24:31.900Z,11.63
2018-08-31T23:30:36.705Z,11.46
2018-08-31T23:36:42.572Z,11.31
2018-08-31T23:42:47.428Z,11.43
2018-08-31T23:48:52.159Z,11.12
2018-08-31T23:54:56.876Z,11.15
